Date,TemperatureHighF,TemperatureAvgF,TemperatureLowF,DewpointHighF,DewpointAvgF,DewpointLowF,HumidityHigh,HumidityAvg,HumidityLow,PressureMaxIn,PressureMinIn,WindSpeedMaxMPH,WindSpeedAvgMPH,GustSpeedMaxMPH,PrecipitationSumIn
2013-1-1,55.8,47.5,36.3,55.4,44.6,31.6,99,90,64,30.29,30.00,57,2,57,0.00
2013-1-2,50.0,37.3,25.9,32.5,28.8,21.9,86,72,47,30.37,30.26,7,2,7,0.00
2013-1-3,51.8,37.0,23.4,37.0,29.1,20.1,93,74,48,30.47,30.34,6,1,7,0.00
2013-1-4,41.5,36.5,33.3,35.1,32.4,30.0,93,86,74,30.53,30.41,6,1,6,0.00
2013-1-7,48.4,47.0,44.4,40.1,39.2,37.6,77,74,72,30.13,30.08,4,1,4,0.00
2013-1-8,53.2,49.4,46.2,52.7,48.1,40.1,99,96,73,30.09,29.92,6,2,6,0.00
2013-1-9,63.7,54.6,48.6,60.8,53.7,48.4,99,97,83,30.06,29.88,11,2,11,0.00
2013-1-10,72.1,53.9,42.8,51.4,45.5,29.5,99,77,40,30.23,30.00,15,3,15,0.00
2013-1-11,78.6,59.8,38.1,63.1,52.5,37.0,98,79,50,30.04,29.85,17,4,17,0.00
2013-1-12,77.2,65.1,45.5,68.4,58.6,33.3,99,81,52,29.97,29.71,15,4,15,0.00
2013-1-13,63.0,44.4,33.1,33.6,27.9,22.6,72,55,26,30.22,29.97,13,4,13,0.00
2013-1-14,62.2,41.4,30.6,30.4,25.5,20.3,68,55,26,30.29,30.13,9,3,9,0.00
2013-1-15,40.6,36.5,29.8,34.0,30.3,21.2,93,78,62,30.28,30.13,13,4,13,0.00
2013-1-16,59.7,38.6,22.6,25.5,20.0,14.7,77,52,21,30.36,30.20,13,3,13,0.00
2013-1-17,77.4,44.8,25.2,37.6,28.2,19.2,89,59,20,30.51,30.31,8,2,8,0.00
2013-1-18,72.1,47.1,25.2,39.7,29.9,21.6,92,58,21,30.53,30.32,13,2,13,0.00
2013-1-19,74.8,52.6,33.4,48.0,39.7,29.3,97,65,34,30.33,30.16,15,4,15,0.00
2013-1-20,86.0,54.7,32.0,49.1,39.1,30.2,98,64,20,30.28,30.10,11,2,11,0.00
2013-1-21,85.1,55.8,35.2,50.0,42.0,33.6,99,67,24,30.28,30.15,7,1,7,0.00
2013-1-22,77.5,54.9,35.2,53.2,43.4,31.8,96,69,39,30.34,30.22,15,3,15,0.00
2013-1-23,79.2,58.9,40.3,57.6,50.0,39.6,98,75,46,30.35,30.22,15,4,15,0.00
2013-1-24,86.9,64.9,44.1,63.0,54.8,43.5,99,74,38,30.27,30.11,16,4,16,0.00
2013-1-25,86.9,68.4,51.4,62.2,57.9,27.9,95,72,40,30.21,30.05,18,4,18,0.00
2013-1-26,79.0,56.0,50.0,59.0,51.5,34.5,99,85,65,30.22,30.10,5,2,5,0.00
2013-1-27,82.8,68.5,54.9,64.9,61.0,30.6,99,78,49,30.34,29.98,19,7,19,0.00
2013-1-28,82.2,72.3,68.4,66.7,65.1,45.1,91,79,55,30.13,29.90,22,7,22,0.00
2013-1-29,85.1,69.4,54.3,67.1,54.7,17.2,93,63,23,29.91,29.57,25,9,25,0.00
2013-1-30,65.3,48.6,29.7,30.2,19.4,10.4,62,33,18,30.24,29.84,21,5,21,0.00
2013-1-31,73.0,48.5,24.3,30.6,20.7,16.5,79,41,14,30.31,30.13,17,4,17,0.00